createdAt,value
2019-01-22T00:00:12.943Z,51.83
2019-01-22T00:02:41.183Z,51.65
2019-01-22T00:05:10.200Z,51.77
2019-01-22T00:07:38.448Z,52.73
2019-01-22T00:10:07.268Z,52.30
2019-01-22T00:12:35.328Z,50.85
2019-01-22T00:15:04.492Z,52.93
2019-01-22T00:17:32.587Z,53.55
2019-01-22T00:20:01.676Z,52.20
2019-01-22T00:22:31.580Z,53.13
2019-01-22T00:25:00.584Z,50.85
2019-01-22T00:27:28.810Z,52.25
2019-01-22T00:29:57.033Z,52.03
2019-01-22T00:32:25.659Z,53.80
2019-01-22T00:34:53.792Z,51.85
2019-01-22T00:37:22.016Z,50.40
2019-01-22T00:39:49.869Z,51.13
2019-01-22T00:42:18.039Z,53.58
2019-01-22T00:44:45.975Z,53.30
2019-01-22T00:47:14.294Z,53.95
2019-01-22T00:49:42.376Z,54.03
2019-01-22T00:52:10.602Z,53.13
2019-01-22T00:54:38.603Z,54.05
2019-01-22T00:57:06.838Z,55.60
2019-01-22T00:59:35.167Z,55.55
2019-01-22T01:02:03.910Z,53.52
2019-01-22T01:04:32.050Z,55.63
2019-01-22T01:07:00.373Z,52.75
2019-01-22T01:09:28.473Z,52.48
2019-01-22T01:11:56.715Z,55.73
2019-01-22T01:14:24.802Z,49.45
2019-01-22T01:16:53.410Z,53.90
2019-01-22T01:19:21.663Z,51.98
2019-01-22T01:21:49.753Z,53.42
2019-01-22T01:24:17.863Z,52.00
2019-01-22T01:26:46.183Z,53.73
2019-01-22T01:29:14.432Z,52.83
2019-01-22T01:31:42.998Z,54.80
2019-01-22T01:34:11.292Z,55.75
2019-01-22T01:36:39.687Z,53.90
2019-01-22T01:39:07.951Z,57.30
2019-01-22T01:41:35.856Z,56.60
2019-01-22T01:44:04.074Z,55.83
2019-01-22T01:46:32.568Z,57.13
2019-01-22T01:49:00.759Z,57.13
2019-01-22T01:51:29.073Z,55.08
2019-01-22T01:53:58.793Z,54.08
2019-01-22T01:56:27.038Z,58.42
2019-01-22T01:58:55.207Z,56.88
2019-01-22T02:01:23.865Z,56.68
2019-01-22T02:03:52.379Z,58.17
2019-01-22T02:06:20.714Z,55.10
2019-01-22T02:08:48.803Z,56.65
2019-01-22T02:11:18.412Z,56.00
2019-01-22T02:13:52.304Z,56.65
2019-01-22T02:16:44.572Z,53.13
2019-01-22T02:19:37.412Z,55.60
2019-01-22T02:22:41.112Z,56.65
2019-01-22T02:25:28.772Z,55.63
2019-01-22T02:28:38.255Z,55.23
2019-01-22T02:31:34.684Z,55.40
2019-01-22T02:34:43.236Z,55.17
2019-01-22T02:37:34.065Z,53.13
2019-01-22T02:40:22.108Z,53.13
2019-01-22T02:43:16.900Z,54.67
2019-01-22T02:46:14.629Z,54.08
2019-01-22T02:48:57.265Z,56.37
2019-01-22T02:51:53.189Z,52.67
2019-01-22T02:54:49.649Z,53.78
2019-01-22T02:57:46.885Z,53.90
2019-01-22T03:00:40.772Z,50.58
2019-01-22T03:03:35.264Z,53.63
2019-01-22T03:06:57.154Z,52.37
2019-01-22T03:09:56.189Z,53.60
2019-01-22T03:12:54.628Z,50.65
2019-01-22T03:16:08.840Z,55.12
2019-01-22T03:18:52.653Z,54.13
2019-01-22T03:21:52.695Z,56.17
2019-01-22T03:24:43.372Z,53.25
2019-01-22T03:27:23.808Z,55.03
2019-01-22T03:30:48.738Z,54.10
2019-01-22T03:33:44.641Z,52.33
2019-01-22T03:37:03.433Z,54.13
2019-01-22T03:39:45.932Z,56.02
2019-01-22T03:43:01.844Z,53.73
2019-01-22T03:46:23.270Z,60.28
2019-01-22T03:49:16.065Z,55.45
2019-01-22T03:52:11.150Z,60.47
2019-01-22T03:55:45.211Z,56.75
2019-01-22T03:58:18.047Z,55.88
2019-01-22T04:01:07.991Z,56.25
2019-01-22T04:03:36.670Z,54.05
2019-01-22T04:06:15.090Z,56.28
2019-01-22T04:08:46.811Z,55.80
2019-01-22T04:11:20.531Z,59.67
2019-01-22T04:13:48.410Z,57.45
2019-01-22T04:16:16.446Z,57.70
2019-01-22T04:18:44.980Z,56.77
2019-01-22T04:21:15.179Z,58.75
2019-01-22T04:23:53.511Z,57.03
2019-01-22T04:26:47.577Z,57.45
2019-01-22T04:29:37.789Z,60.20
2019-01-22T04:32:19.951Z,57.53
2019-01-22T04:35:28.344Z,55.17
2019-01-22T04:38:21.814Z,54.53
2019-01-22T04:41:07.146Z,58.73
2019-01-22T04:44:05.803Z,56.65
2019-01-22T04:46:54.675Z,56.10
2019-01-22T04:50:05.781Z,55.40
2019-01-22T04:52:51.458Z,54.42
2019-01-22T04:55:57.309Z,55.48
2019-01-22T04:59:04.499Z,53.52
2019-01-22T05:02:10.341Z,53.40
2019-01-22T05:05:01.353Z,53.10
2019-01-22T05:08:10.413Z,53.70
2019-01-22T05:10:50.310Z,52.25
2019-01-22T05:13:42.774Z,54.63
2019-01-22T05:16:41.736Z,54.23
2019-01-22T05:19:25.300Z,52.25
2019-01-22T05:22:49.036Z,53.90
2019-01-22T05:25:56.827Z,52.95
2019-01-22T05:28:39.265Z,58.40
2019-01-22T05:32:00.808Z,53.05
2019-01-22T05:34:49.023Z,47.63
2019-01-22T05:38:04.341Z,49.10
2019-01-22T05:41:27.079Z,50.58
2019-01-22T05:44:52.180Z,52.90
2019-01-22T05:48:13.286Z,57.70
2019-01-22T05:51:07.259Z,53.13
2019-01-22T05:56:51.463Z,49.42
2019-01-22T05:59:42.139Z,53.60
2019-01-22T06:02:13.897Z,58.48
2019-01-22T06:05:39.129Z,53.58
2019-01-22T06:08:56.634Z,56.20
2019-01-22T06:12:15.013Z,58.17
2019-01-22T06:15:08.745Z,51.68
2019-01-22T06:18:15.555Z,48.17
2019-01-22T06:21:21.776Z,50.33
2019-01-22T06:24:33.110Z,49.35
2019-01-22T06:27:13.039Z,48.50
2019-01-22T06:30:27.425Z,47.73
2019-01-22T06:33:51.892Z,53.23
2019-01-22T06:37:25.752Z,51.13
2019-01-22T06:39:59.064Z,52.75
2019-01-22T06:43:17.828Z,54.80
2019-01-22T06:46:29.012Z,52.53
2019-01-22T06:49:13.043Z,50.23
2019-01-22T06:52:09.020Z,66.30
2019-01-22T06:55:01.855Z,45.27
2019-01-22T06:58:14.936Z,46.75
2019-01-22T07:01:33.817Z,44.33
2019-01-22T07:04:28.684Z,83.90
2019-01-22T07:07:41.360Z,48.65
2019-01-22T07:10:40.501Z,49.10
2019-01-22T07:13:55.196Z,47.38
2019-01-22T07:17:03.935Z,48.37
2019-01-22T07:20:07.912Z,50.23
2019-01-22T07:23:22.469Z,49.27
2019-01-22T07:26:08.896Z,49.20
2019-01-22T07:28:59.757Z,49.42
2019-01-22T07:31:58.936Z,51.68
2019-01-22T07:35:00.494Z,43.87
2019-01-22T07:37:59.884Z,41.37
2019-01-22T07:41:15.792Z,44.45
2019-01-22T07:44:12.950Z,43.15
2019-01-22T07:47:31.195Z,45.20
2019-01-22T07:50:24.668Z,46.53
2019-01-22T07:53:09.907Z,45.00
2019-01-22T07:55:59.736Z,39.65
2019-01-22T07:58:46.944Z,41.30
2019-01-22T08:01:50.866Z,53.45
2019-01-22T08:04:58.676Z,41.45
2019-01-22T08:08:20.082Z,43.40
2019-01-22T08:11:18.440Z,43.93
2019-01-22T08:14:12.436Z,44.30
2019-01-22T08:17:24.496Z,41.25
2019-01-22T08:20:33.068Z,41.65
2019-01-22T08:23:31.909Z,37.42
2019-01-22T08:26:14.108Z,37.23
2019-01-22T08:29:14.651Z,41.60
2019-01-22T08:32:01.390Z,41.87
2019-01-22T08:35:09.166Z,40.70
2019-01-22T08:38:14.117Z,41.68
2019-01-22T08:41:09.190Z,41.63
2019-01-22T08:43:51.454Z,46.45
2019-01-22T08:47:20.711Z,44.03
2019-01-22T08:50:18.688Z,41.05
2019-01-22T08:53:12.828Z,42.27
2019-01-22T08:56:09.027Z,42.08
2019-01-22T08:58:48.975Z,38.87
2019-01-22T09:01:54.725Z,42.20
2019-01-22T09:05:06.530Z,43.73
2019-01-22T09:07:53.122Z,42.35
2019-01-22T09:11:04.341Z,38.85
2019-01-22T09:13:56.769Z,39.30
2019-01-22T09:17:21.663Z,41.95
2019-01-22T09:20:07.923Z,41.00
2019-01-22T09:23:32.410Z,39.45
2019-01-22T09:26:38.707Z,40.38
2019-01-22T09:29:44.172Z,38.87
2019-01-22T09:32:48.483Z,41.70
2019-01-22T09:35:54.000Z,41.33
2019-01-22T09:38:22.314Z,42.90
2019-01-22T09:40:50.787Z,42.08
2019-01-22T09:43:18.921Z,43.68
2019-01-22T09:45:47.353Z,47.17
2019-01-22T09:48:17.142Z,50.40
2019-01-22T09:50:45.180Z,47.95
2019-01-22T09:53:13.267Z,44.27
2019-01-22T09:55:41.457Z,45.45
2019-01-22T09:58:09.497Z,48.75
2019-01-22T10:00:37.637Z,48.50
2019-01-22T10:03:05.652Z,50.95
2019-01-22T10:05:33.848Z,50.15
2019-01-22T10:08:02.087Z,45.85
2019-01-22T10:10:30.180Z,48.65
2019-01-22T10:12:58.262Z,46.85
2019-01-22T10:15:28.055Z,45.92
2019-01-22T10:17:57.276Z,47.03
2019-01-22T10:20:26.223Z,47.45
2019-01-22T10:22:54.450Z,45.73
2019-01-22T10:25:29.213Z,43.10
2019-01-22T10:27:52.644Z,43.65
2019-01-22T10:30:22.017Z,45.30
2019-01-22T10:32:50.209Z,44.58
2019-01-22T10:35:18.492Z,44.05
2019-01-22T10:37:48.367Z,44.88
2019-01-22T10:40:18.091Z,42.43
2019-01-22T10:42:46.264Z,42.03
2019-01-22T10:45:15.852Z,45.75
2019-01-22T10:50:37.929Z,42.20
2019-01-22T10:53:06.233Z,43.73
2019-01-22T10:55:36.413Z,44.23
2019-01-22T10:58:08.755Z,41.98
2019-01-22T11:00:35.189Z,43.23
2019-01-22T11:03:03.453Z,42.60
2019-01-22T11:05:33.737Z,42.00
2019-01-22T11:08:01.967Z,43.40
2019-01-22T11:10:30.450Z,41.68
2019-01-22T11:12:58.661Z,42.17
2019-01-22T11:15:28.032Z,41.88
2019-01-22T11:17:56.523Z,41.53
2019-01-22T11:20:25.844Z,43.92
2019-01-22T11:22:54.007Z,41.68
2019-01-22T11:25:23.290Z,41.73
2019-01-22T11:27:51.409Z,42.30
2019-01-22T11:30:21.048Z,42.45
2019-01-22T11:32:49.128Z,40.30
2019-01-22T11:35:18.186Z,41.92
2019-01-22T11:37:46.339Z,40.28
2019-01-22T11:40:17.320Z,40.80
2019-01-22T11:42:45.546Z,39.15
2019-01-22T11:45:13.737Z,37.78
2019-01-22T11:47:41.883Z,41.83
2019-01-22T11:50:12.837Z,39.98
2019-01-22T11:52:40.864Z,37.28
2019-01-22T11:55:09.084Z,39.20
2019-01-22T11:57:38.236Z,35.78
2019-01-22T12:00:15.640Z,39.40
2019-01-22T12:02:43.703Z,40.55
2019-01-22T12:05:11.873Z,37.38
2019-01-22T12:07:40.145Z,38.55
2019-01-22T12:10:09.369Z,37.00
2019-01-22T12:12:37.453Z,34.58
2019-01-22T12:15:08.016Z,34.20
2019-01-22T12:17:36.247Z,37.33
2019-01-22T12:20:07.676Z,34.00
2019-01-22T12:22:35.879Z,34.45
2019-01-22T12:25:04.533Z,34.67
2019-01-22T12:27:32.823Z,33.92
2019-01-22T12:30:01.091Z,34.70
2019-01-22T12:32:29.272Z,35.75
2019-01-22T12:34:57.627Z,34.90
2019-01-22T12:37:25.807Z,32.78
2019-01-22T12:39:53.925Z,31.77
2019-01-22T12:42:27.953Z,33.45
2019-01-22T12:44:57.490Z,32.28
2019-01-22T12:47:25.521Z,32.23
2019-01-22T12:49:53.673Z,31.55
2019-01-22T12:52:21.638Z,31.07
2019-01-22T12:54:49.921Z,34.55
2019-01-22T12:57:18.075Z,31.23
2019-01-22T12:59:46.370Z,32.88
2019-01-22T13:02:14.396Z,30.97
2019-01-22T13:04:42.490Z,33.08
2019-01-22T13:07:10.540Z,33.60
2019-01-22T13:09:38.641Z,33.88
2019-01-22T13:12:06.963Z,34.58
2019-01-22T13:14:35.258Z,34.63
2019-01-22T13:17:03.584Z,33.50
2019-01-22T13:19:32.115Z,34.10
2019-01-22T13:22:00.347Z,53.00
2019-01-22T13:24:28.407Z,36.85
2019-01-22T13:26:58.062Z,34.40
2019-01-22T13:29:27.132Z,35.45
2019-01-22T13:31:55.398Z,34.30
2019-01-22T13:34:23.416Z,34.98
2019-01-22T13:36:51.623Z,36.00
2019-01-22T13:39:19.782Z,33.85
2019-01-22T13:41:48.032Z,33.13
2019-01-22T13:44:16.246Z,32.38
2019-01-22T13:46:44.424Z,31.87
2019-01-22T13:49:12.501Z,31.97
2019-01-22T13:51:40.625Z,31.52
2019-01-22T13:54:08.721Z,31.70
2019-01-22T13:56:36.860Z,32.90
2019-01-22T13:59:05.088Z,33.55
2019-01-22T14:01:33.215Z,35.05
2019-01-22T14:04:01.434Z,34.78
2019-01-22T14:06:29.459Z,32.85
2019-01-22T14:08:57.780Z,33.33
2019-01-22T14:11:26.011Z,35.15
2019-01-22T14:14:13.368Z,32.42
2019-01-22T14:16:41.521Z,29.67
2019-01-22T14:19:10.362Z,31.97
2019-01-22T14:21:38.504Z,36.08
2019-01-22T14:24:06.751Z,34.40
2019-01-22T14:26:36.406Z,34.65
2019-01-22T14:29:04.637Z,34.67
2019-01-22T14:31:32.727Z,34.92
2019-01-22T14:34:00.569Z,32.55
2019-01-22T14:36:28.677Z,34.00
2019-01-22T14:38:56.824Z,35.23
2019-01-22T14:41:24.928Z,35.10
2019-01-22T14:43:53.078Z,32.48
2019-01-22T14:46:21.393Z,33.13
2019-01-22T14:48:49.400Z,31.60
2019-01-22T14:51:17.639Z,33.50
2019-01-22T14:53:45.888Z,31.62
2019-01-22T14:56:13.947Z,31.95
2019-01-22T14:58:42.153Z,33.60
2019-01-22T15:01:10.370Z,34.03
2019-01-22T15:03:41.540Z,32.55
2019-01-22T15:06:08.769Z,35.70
2019-01-22T15:08:37.021Z,35.15
2019-01-22T15:11:05.331Z,37.15
2019-01-22T15:13:33.549Z,33.75
2019-01-22T15:16:01.698Z,33.88
2019-01-22T15:18:29.873Z,33.50
2019-01-22T15:20:58.146Z,32.00
2019-01-22T15:23:26.322Z,35.08
2019-01-22T15:25:56.515Z,36.10
2019-01-22T15:28:24.676Z,38.40
2019-01-22T15:30:52.913Z,55.38
2019-01-22T15:33:21.132Z,46.50
2019-01-22T15:35:49.485Z,39.67
2019-01-22T15:38:17.784Z,35.30
2019-01-22T15:40:46.104Z,37.05
2019-01-22T15:43:14.045Z,35.30
2019-01-22T15:45:42.220Z,50.83
2019-01-22T15:48:10.482Z,41.65
2019-01-22T15:50:38.731Z,39.70
2019-01-22T15:53:06.823Z,39.95
2019-01-22T15:55:36.301Z,38.15
2019-01-22T15:58:05.415Z,36.05
2019-01-22T16:00:33.588Z,37.70
2019-01-22T16:03:01.625Z,36.88
2019-01-22T16:05:29.766Z,35.58
2019-01-22T16:07:57.864Z,34.70
2019-01-22T16:10:26.077Z,34.80
2019-01-22T16:12:54.299Z,34.80
2019-01-22T16:15:22.331Z,34.58
2019-01-22T16:17:51.036Z,34.30
2019-01-22T16:20:20.714Z,35.58
2019-01-22T16:22:50.534Z,34.25
2019-01-22T16:25:18.861Z,35.63
2019-01-22T16:27:47.148Z,35.58
2019-01-22T16:30:19.984Z,34.78
2019-01-22T16:32:48.463Z,34.50
2019-01-22T16:35:18.079Z,36.75
2019-01-22T16:37:46.151Z,34.30
2019-01-22T16:40:14.664Z,37.33
2019-01-22T16:42:43.081Z,35.83
2019-01-22T16:45:17.343Z,35.52
2019-01-22T16:47:45.718Z,40.55
2019-01-22T16:50:15.696Z,38.15
2019-01-22T16:52:43.978Z,37.87
2019-01-22T16:55:15.051Z,36.68
2019-01-22T16:57:43.092Z,38.95
2019-01-22T17:00:19.797Z,36.80
2019-01-22T17:02:48.060Z,35.78
2019-01-22T17:05:16.925Z,35.60
2019-01-22T17:07:45.244Z,37.23
2019-01-22T17:10:14.528Z,36.85
2019-01-22T17:12:42.801Z,37.03
2019-01-22T17:15:11.984Z,37.67
2019-01-22T17:17:40.127Z,35.95
2019-01-22T17:20:12.517Z,37.17
2019-01-22T17:22:40.832Z,37.67
2019-01-22T17:25:09.104Z,39.45
2019-01-22T17:27:37.215Z,35.50
2019-01-22T17:30:07.975Z,40.90
2019-01-22T17:32:51.491Z,38.70
2019-01-22T17:35:19.883Z,40.67
2019-01-22T17:37:48.092Z,41.50
2019-01-22T17:40:16.636Z,42.65
2019-01-22T17:42:45.187Z,42.77
2019-01-22T17:45:13.706Z,42.93
2019-01-22T17:47:41.817Z,43.90
2019-01-22T17:50:11.119Z,46.58
2019-01-22T17:52:39.493Z,45.23
2019-01-22T17:55:08.712Z,44.00
2019-01-22T17:57:36.938Z,43.20
2019-01-22T18:00:08.747Z,45.05
2019-01-22T18:02:36.972Z,40.40
2019-01-22T18:05:05.562Z,41.15
2019-01-22T18:07:33.537Z,41.50
2019-01-22T18:10:01.824Z,42.38
2019-01-22T18:12:30.193Z,44.05
2019-01-22T18:14:58.362Z,46.87
2019-01-22T18:17:26.537Z,45.92
2019-01-22T18:19:54.828Z,46.83
2019-01-22T18:22:23.059Z,49.03
2019-01-22T18:24:51.301Z,47.20
2019-01-22T18:27:20.818Z,46.70
2019-01-22T18:29:49.115Z,50.10
2019-01-22T18:32:17.331Z,49.23
2019-01-22T18:34:45.475Z,50.28
2019-01-22T18:37:13.696Z,48.60
2019-01-22T18:39:41.831Z,49.48
2019-01-22T18:42:10.149Z,48.30
2019-01-22T18:44:38.383Z,49.63
2019-01-22T18:47:06.658Z,51.20
2019-01-22T18:49:35.826Z,49.65
2019-01-22T18:52:04.461Z,50.95
2019-01-22T18:54:32.719Z,50.35
2019-01-22T18:57:00.907Z,50.63
2019-01-22T18:59:29.139Z,52.58
2019-01-22T19:01:57.466Z,52.55
2019-01-22T19:04:25.607Z,51.45
2019-01-22T19:06:53.780Z,52.05
2019-01-22T19:09:21.977Z,50.43
2019-01-22T19:11:49.949Z,49.55
2019-01-22T19:14:18.112Z,52.77
2019-01-22T19:16:46.152Z,51.55
2019-01-22T19:19:14.279Z,50.20
2019-01-22T19:21:42.400Z,50.50
2019-01-22T19:24:10.507Z,49.10
2019-01-22T19:26:39.642Z,50.03
2019-01-22T19:29:07.983Z,51.93
2019-01-22T19:31:36.220Z,47.05
